createdAt,value
2018-12-07T00:01:26.707Z,30.37
2018-12-07T00:03:54.240Z,29.97
2018-12-07T00:06:21.728Z,29.33
2018-12-07T00:08:49.200Z,30.23
2018-12-07T00:11:16.664Z,26.97
2018-12-07T00:13:44.233Z,26.63
2018-12-07T00:16:11.688Z,27.43
2018-12-07T00:18:39.139Z,26.10
2018-12-07T00:21:06.605Z,24.90
2018-12-07T00:23:34.055Z,12.37
2018-12-07T00:26:01.512Z,24.00
2018-12-07T00:28:28.980Z,24.07
2018-12-07T00:30:56.443Z,24.33
2018-12-07T00:33:23.953Z,23.37
2018-12-07T00:35:51.512Z,21.10
2018-12-07T00:38:19.020Z,22.10
2018-12-07T00:40:47.372Z,21.00
2018-12-07T00:43:14.883Z,22.73
2018-12-07T00:45:42.373Z,21.80
2018-12-07T00:48:09.848Z,20.27
2018-12-07T00:50:37.292Z,20.53
2018-12-07T00:53:04.809Z,20.27
2018-12-07T00:55:36.553Z,20.93
2018-12-07T00:58:04.038Z,20.90
2018-12-07T01:00:31.520Z,18.73
2018-12-07T01:02:59.516Z,19.57
2018-12-07T01:05:26.998Z,19.07
2018-12-07T01:07:54.476Z,19.40
2018-12-07T01:10:22.044Z,17.70
2018-12-07T01:12:49.519Z,16.50
2018-12-07T01:15:16.996Z,15.90
2018-12-07T01:17:44.473Z,16.77
2018-12-07T01:20:11.935Z,16.03
2018-12-07T01:22:39.386Z,13.70
2018-12-07T01:25:06.876Z,13.90
2018-12-07T01:27:34.352Z,13.27
2018-12-07T01:30:01.833Z,13.97
2018-12-07T01:32:29.327Z,13.57
2018-12-07T01:34:56.815Z,13.57
2018-12-07T01:37:24.311Z,12.53
2018-12-07T01:39:51.760Z,12.50
2018-12-07T01:42:19.269Z,10.40
2018-12-07T01:44:46.864Z,11.30
2018-12-07T01:47:14.432Z,11.00
2018-12-07T01:49:41.908Z,11.40
2018-12-07T01:52:09.676Z,10.03
2018-12-07T01:54:37.131Z,9.63
2018-12-07T01:57:04.608Z,9.60
2018-12-07T01:59:32.086Z,9.43
2018-12-07T02:01:59.548Z,9.73
2018-12-07T02:04:27.007Z,10.20
2018-12-07T02:06:54.472Z,8.63
2018-12-07T02:09:21.952Z,10.40
2018-12-07T02:11:49.434Z,10.53
2018-12-07T02:14:16.874Z,11.03
2018-12-07T02:16:44.346Z,9.57
2018-12-07T02:19:11.809Z,9.10
2018-12-07T02:21:39.268Z,9.13
2018-12-07T02:24:06.726Z,9.10
2018-12-07T02:26:34.278Z,8.73
2018-12-07T02:29:01.723Z,7.83
2018-12-07T02:31:29.200Z,7.67
2018-12-07T02:33:56.677Z,7.83
2018-12-07T02:36:24.138Z,7.47
2018-12-07T02:38:51.691Z,5.33
2018-12-07T02:41:19.151Z,7.63
2018-12-07T02:43:46.599Z,6.47
2018-12-07T02:46:14.076Z,6.50
2018-12-07T02:48:41.533Z,6.00
2018-12-07T02:51:08.994Z,6.60
2018-12-07T02:53:36.448Z,6.07
2018-12-07T02:56:03.920Z,6.63
2018-12-07T02:58:31.379Z,6.50
2018-12-07T03:00:58.844Z,6.73
2018-12-07T03:03:26.290Z,6.23
2018-12-07T03:05:53.749Z,6.47
2018-12-07T03:08:21.230Z,6.30
2018-12-07T03:10:48.890Z,6.47
2018-12-07T03:13:16.429Z,6.37
2018-12-07T03:15:43.879Z,6.63
2018-12-07T03:18:31.075Z,6.70
2018-12-07T03:20:58.551Z,6.80
2018-12-07T03:23:26.264Z,6.43
2018-12-07T03:25:53.756Z,6.57
2018-12-07T03:28:21.298Z,6.77
2018-12-07T03:30:48.848Z,5.80
2018-12-07T03:33:16.308Z,6.57
2018-12-07T03:35:43.777Z,6.80
2018-12-07T03:38:11.241Z,6.20
2018-12-07T03:40:38.700Z,6.07
2018-12-07T03:43:06.167Z,5.53
2018-12-07T03:45:33.699Z,5.63
2018-12-07T03:48:01.174Z,5.90
2018-12-07T03:50:28.627Z,6.03
2018-12-07T03:52:56.092Z,5.50
2018-12-07T03:55:23.570Z,6.20
2018-12-07T03:57:51.010Z,5.80
2018-12-07T04:00:18.500Z,6.07
2018-12-07T04:02:45.940Z,6.20
2018-12-07T04:05:13.484Z,5.50
2018-12-07T04:07:40.986Z,5.63
2018-12-07T04:10:08.465Z,6.23
2018-12-07T04:12:35.988Z,6.30
2018-12-07T04:15:04.564Z,6.83
2018-12-07T04:17:32.010Z,7.20
2018-12-07T04:19:59.459Z,7.63
2018-12-07T04:22:26.922Z,8.07
2018-12-07T04:24:54.355Z,8.20
2018-12-07T04:27:21.799Z,7.13
2018-12-07T04:29:49.351Z,8.90
2018-12-07T04:32:16.846Z,8.73
2018-12-07T04:34:44.289Z,8.80
2018-12-07T04:37:11.731Z,9.17
2018-12-07T04:39:39.199Z,8.90
2018-12-07T04:42:06.668Z,8.00
2018-12-07T04:44:34.300Z,8.23
2018-12-07T04:47:01.758Z,8.90
2018-12-07T04:49:29.222Z,9.30
2018-12-07T04:51:56.692Z,8.50
2018-12-07T04:54:24.168Z,7.97
2018-12-07T04:56:51.629Z,8.57
2018-12-07T04:59:19.095Z,9.20
2018-12-07T05:01:46.561Z,9.70
2018-12-07T05:04:14.022Z,9.50
2018-12-07T05:06:41.560Z,9.10
2018-12-07T05:09:09.027Z,9.73
2018-12-07T05:11:36.474Z,9.80
2018-12-07T05:14:04.345Z,9.70
2018-12-07T05:16:31.800Z,9.77
2018-12-07T05:18:59.255Z,9.43
2018-12-07T05:21:26.711Z,9.70
2018-12-07T05:23:54.244Z,10.47
2018-12-07T05:26:21.709Z,9.73
2018-12-07T05:28:49.174Z,9.87
2018-12-07T05:31:16.734Z,9.83
2018-12-07T05:33:45.172Z,9.50
2018-12-07T05:36:12.667Z,10.03
2018-12-07T05:38:40.124Z,9.67
2018-12-07T05:41:07.579Z,9.50
2018-12-07T05:43:37.181Z,9.77
2018-12-07T05:46:04.627Z,10.07
2018-12-07T05:48:32.074Z,9.73
2018-12-07T05:50:59.656Z,9.27
2018-12-07T05:53:27.113Z,9.73
2018-12-07T05:55:54.573Z,9.40
2018-12-07T05:58:22.048Z,8.83
2018-12-07T06:00:49.496Z,9.80
2018-12-07T06:03:16.940Z,10.33
2018-12-07T06:05:44.420Z,9.83
2018-12-07T06:08:11.870Z,9.00
2018-12-07T06:10:39.342Z,8.73
2018-12-07T06:13:06.897Z,8.97
2018-12-07T06:15:34.364Z,9.63
2018-12-07T06:18:01.835Z,8.67
2018-12-07T06:20:29.372Z,8.90
2018-12-07T06:22:56.839Z,9.13
2018-12-07T06:25:24.296Z,9.60
2018-12-07T06:27:51.751Z,8.83
2018-12-07T06:30:19.219Z,9.83
2018-12-07T06:32:46.699Z,9.77
2018-12-07T06:35:14.160Z,9.80
2018-12-07T06:37:41.639Z,10.57
2018-12-07T06:40:09.086Z,10.57
2018-12-07T06:42:36.544Z,11.10
2018-12-07T06:45:05.127Z,11.97
2018-12-07T06:47:32.583Z,12.03
2018-12-07T06:50:00.074Z,12.03
2018-12-07T06:52:27.579Z,11.87
2018-12-07T06:54:55.036Z,11.93
2018-12-07T06:57:22.547Z,12.17
2018-12-07T06:59:49.992Z,13.50
2018-12-07T07:02:17.471Z,11.77
2018-12-07T07:04:45.012Z,11.33
2018-12-07T07:07:12.468Z,11.20
2018-12-07T07:09:39.928Z,10.97
2018-12-07T07:12:07.418Z,9.47
2018-12-07T07:14:34.880Z,10.17
2018-12-07T07:17:02.340Z,9.07
2018-12-07T07:19:29.815Z,9.10
2018-12-07T07:21:57.275Z,8.13
2018-12-07T07:24:24.772Z,7.60
2018-12-07T07:26:52.308Z,8.10
2018-12-07T07:29:19.778Z,7.57
2018-12-07T07:31:47.211Z,6.97
2018-12-07T07:34:14.680Z,6.60
2018-12-07T07:36:42.152Z,5.90
2018-12-07T07:39:09.597Z,6.57
2018-12-07T07:41:37.044Z,6.27
2018-12-07T07:44:04.520Z,5.70
2018-12-07T07:46:32.087Z,6.30
2018-12-07T07:48:59.755Z,5.97
2018-12-07T07:51:27.384Z,6.50
2018-12-07T07:53:54.916Z,6.17
2018-12-07T07:56:22.385Z,6.63
2018-12-07T07:58:49.843Z,6.67
2018-12-07T08:01:17.315Z,5.67
2018-12-07T08:03:44.785Z,5.93
2018-12-07T08:06:12.252Z,6.43
2018-12-07T08:08:39.706Z,5.03
2018-12-07T08:11:07.176Z,5.67
2018-12-07T08:13:34.656Z,5.40
2018-12-07T08:16:02.214Z,5.00
2018-12-07T08:18:29.672Z,5.30
2018-12-07T08:20:57.140Z,5.40
2018-12-07T08:23:24.588Z,4.77
2018-12-07T08:25:53.159Z,5.10
2018-12-07T08:28:20.640Z,4.67
2018-12-07T08:30:48.100Z,4.40
2018-12-07T08:33:15.580Z,4.90
2018-12-07T08:35:43.104Z,4.13
2018-12-07T08:38:10.584Z,4.27
2018-12-07T08:40:38.069Z,4.10
2018-12-07T08:43:05.580Z,4.77
2018-12-07T08:45:33.035Z,4.50
2018-12-07T08:48:00.512Z,4.17
2018-12-07T08:50:28.101Z,4.00
2018-12-07T08:52:55.544Z,4.10
2018-12-07T08:55:22.999Z,4.60
2018-12-07T08:57:50.504Z,4.37
2018-12-07T09:00:18.008Z,4.70
2018-12-07T09:02:45.432Z,4.60
2018-12-07T09:05:12.901Z,4.40
2018-12-07T09:07:40.378Z,4.37
2018-12-07T09:10:07.954Z,4.60
2018-12-07T09:12:35.632Z,4.23
2018-12-07T09:15:03.627Z,4.07
2018-12-07T09:17:32.273Z,4.53
2018-12-07T09:19:59.824Z,4.23
2018-12-07T09:22:27.443Z,3.90
2018-12-07T09:24:55.103Z,4.37
2018-12-07T09:27:22.639Z,4.20
2018-12-07T09:29:50.092Z,4.13
2018-12-07T09:32:17.548Z,3.80
2018-12-07T09:34:45.005Z,4.17
2018-12-07T09:37:12.507Z,3.47
2018-12-07T09:39:39.988Z,3.70
2018-12-07T09:42:07.446Z,3.43
2018-12-07T09:44:34.908Z,3.50
2018-12-07T09:47:02.376Z,3.30
2018-12-07T09:49:29.848Z,3.13
2018-12-07T09:51:57.338Z,3.20
2018-12-07T09:54:24.771Z,2.90
2018-12-07T09:56:52.208Z,2.53
2018-12-07T09:59:19.644Z,2.47
2018-12-07T10:01:47.116Z,2.57
2018-12-07T10:04:14.579Z,2.20
2018-12-07T10:06:42.129Z,2.50
2018-12-07T10:09:09.602Z,2.13
2018-12-07T10:11:37.080Z,3.00
2018-12-07T10:14:04.542Z,2.10
2018-12-07T10:16:32.003Z,1.90
2018-12-07T10:18:59.451Z,2.10
2018-12-07T10:21:27.028Z,1.97
2018-12-07T10:23:54.513Z,2.00
2018-12-07T10:26:22.039Z,1.80
2018-12-07T10:28:49.900Z,1.97
2018-12-07T10:31:17.360Z,2.27
2018-12-07T10:33:44.862Z,2.00
2018-12-07T10:36:12.306Z,2.23
2018-12-07T10:38:39.831Z,2.37
2018-12-07T10:41:07.279Z,2.10
2018-12-07T10:43:34.745Z,2.30
2018-12-07T10:46:02.211Z,2.93
2018-12-07T10:48:29.744Z,2.37
2018-12-07T10:50:57.216Z,2.07
2018-12-07T10:53:24.679Z,2.17
2018-12-07T10:55:52.131Z,2.30
2018-12-07T10:58:19.579Z,2.03
2018-12-07T11:00:52.636Z,2.40
2018-12-07T11:03:25.817Z,1.97
2018-12-07T11:05:58.936Z,2.03
2018-12-07T11:08:32.088Z,2.10
2018-12-07T11:11:01.504Z,2.13
2018-12-07T11:13:40.844Z,2.00
2018-12-07T11:19:21.924Z,2.40
2018-12-07T11:24:58.024Z,2.50
2018-12-07T11:27:31.203Z,2.93
2018-12-07T11:30:03.606Z,2.40
2018-12-07T11:32:32.564Z,2.20
2018-12-07T11:35:01.965Z,2.30
2018-12-07T11:37:29.499Z,2.17
2018-12-07T11:39:56.971Z,1.93
2018-12-07T11:42:24.441Z,1.73
2018-12-07T11:44:51.911Z,2.20
2018-12-07T11:47:19.375Z,2.30
2018-12-07T11:49:46.868Z,2.40
2018-12-07T11:52:14.336Z,2.87
2018-12-07T11:54:41.819Z,2.20
2018-12-07T11:57:09.291Z,2.00
2018-12-07T11:59:36.911Z,2.50
2018-12-07T12:02:04.448Z,2.43
2018-12-07T12:04:32.060Z,2.40
2018-12-07T12:06:59.528Z,2.30
2018-12-07T12:09:28.579Z,2.23
2018-12-07T12:11:57.517Z,2.00
2018-12-07T12:14:28.153Z,1.77
2018-12-07T12:16:55.603Z,1.87
2018-12-07T12:19:27.299Z,1.90
2018-12-07T12:21:55.731Z,1.80
2018-12-07T12:24:25.553Z,1.90
2018-12-07T12:26:53.509Z,1.60
2018-12-07T12:29:20.982Z,1.57
2018-12-07T12:31:48.513Z,1.73
2018-12-07T12:34:24.545Z,1.60
2018-12-07T12:36:52.624Z,1.70
2018-12-07T12:39:21.668Z,1.93
2018-12-07T12:41:49.112Z,2.40
2018-12-07T12:44:16.994Z,1.97
2018-12-07T12:46:44.812Z,2.10
2018-12-07T12:49:12.281Z,2.10
2018-12-07T12:51:39.895Z,2.00
2018-12-07T12:54:07.340Z,2.43
2018-12-07T12:56:34.896Z,2.00
2018-12-07T12:59:02.349Z,2.33
2018-12-07T13:01:29.831Z,2.20
2018-12-07T13:03:57.275Z,2.40
2018-12-07T13:06:24.743Z,2.50
2018-12-07T13:08:52.208Z,2.27
2018-12-07T13:11:19.680Z,3.40
2018-12-07T13:13:47.133Z,2.80
2018-12-07T13:16:14.588Z,3.07
2018-12-07T13:18:42.067Z,3.20
2018-12-07T13:21:09.500Z,3.20
2018-12-07T13:23:36.981Z,3.53
2018-12-07T13:26:04.452Z,4.03
2018-12-07T13:28:31.954Z,3.83
2018-12-07T13:31:00.065Z,3.97
2018-12-07T13:33:27.582Z,4.40
2018-12-07T13:35:55.036Z,3.53
2018-12-07T13:38:22.496Z,5.23
2018-12-07T13:40:50.057Z,5.57
2018-12-07T13:43:17.646Z,5.37
2018-12-07T13:45:45.248Z,4.60
2018-12-07T13:48:12.890Z,4.87
2018-12-07T13:50:40.619Z,4.37
2018-12-07T13:53:08.229Z,4.60
2018-12-07T13:55:36.752Z,4.73
2018-12-07T13:58:04.442Z,4.90
2018-12-07T14:00:32.032Z,5.50
2018-12-07T14:02:59.695Z,4.53
2018-12-07T14:05:32.269Z,5.00
2018-12-07T14:07:56.821Z,4.03
2018-12-07T14:10:25.336Z,3.90
2018-12-07T14:12:53.000Z,3.93
2018-12-07T14:15:20.545Z,4.00
2018-12-07T14:17:48.254Z,3.30
2018-12-07T14:20:16.395Z,3.80
2018-12-07T14:22:44.037Z,3.87
2018-12-07T14:25:11.608Z,4.17
2018-12-07T14:27:39.198Z,4.47
2018-12-07T14:30:07.374Z,5.00
2018-12-07T14:32:35.058Z,8.83
2018-12-07T14:35:02.649Z,3.90
2018-12-07T14:37:30.227Z,4.23
2018-12-07T14:39:58.939Z,4.23
2018-12-07T14:42:26.546Z,4.60
2018-12-07T14:44:54.568Z,4.60
2018-12-07T14:47:22.084Z,5.07
2018-12-07T14:49:49.916Z,5.37
2018-12-07T14:52:17.549Z,5.97
2018-12-07T14:54:45.153Z,6.03
2018-12-07T14:57:12.935Z,5.87
2018-12-07T14:59:40.510Z,10.40
2018-12-07T15:02:08.045Z,5.40
2018-12-07T15:04:35.730Z,5.73
2018-12-07T15:07:03.351Z,5.73
2018-12-07T15:09:31.014Z,5.40
2018-12-07T15:11:58.587Z,5.70
2018-12-07T15:14:27.159Z,5.97
2018-12-07T15:16:54.708Z,6.93
2018-12-07T15:19:22.254Z,7.97
2018-12-07T15:21:49.830Z,9.37
2018-12-07T15:24:17.458Z,7.97
2018-12-07T15:26:45.139Z,7.80
2018-12-07T15:29:12.958Z,8.40
2018-12-07T15:31:40.609Z,9.40
2018-12-07T15:34:08.143Z,9.23
2018-12-07T15:36:35.939Z,9.03
2018-12-07T15:39:06.353Z,9.13
2018-12-07T15:41:34.128Z,9.63
2018-12-07T15:44:02.627Z,9.83
2018-12-07T15:46:30.255Z,10.43
2018-12-07T15:48:57.860Z,9.70
2018-12-07T15:51:25.503Z,10.97
2018-12-07T15:53:53.189Z,10.07
2018-12-07T15:56:20.772Z,10.70
2018-12-07T15:58:48.384Z,11.43
2018-12-07T16:01:19.680Z,11.03
2018-12-07T16:03:47.268Z,10.80
2018-12-07T16:06:14.945Z,11.17
2018-12-07T16:08:42.666Z,10.30
2018-12-07T16:11:10.225Z,10.93
2018-12-07T16:13:38.250Z,11.40
2018-12-07T16:16:05.993Z,11.50
2018-12-07T16:18:34.270Z,11.50
2018-12-07T16:21:01.928Z,12.23
2018-12-07T16:23:29.760Z,12.30
2018-12-07T16:25:57.560Z,12.87
2018-12-07T16:28:25.316Z,11.70
2018-12-07T16:30:53.005Z,12.33
2018-12-07T16:33:20.515Z,13.03
2018-12-07T16:35:48.196Z,14.17
2018-12-07T16:38:15.804Z,13.80
2018-12-07T16:40:43.357Z,13.23
2018-12-07T16:43:10.886Z,13.60
2018-12-07T16:45:38.538Z,13.07
2018-12-07T16:48:06.118Z,13.20
2018-12-07T16:50:35.659Z,11.50
2018-12-07T16:53:03.268Z,11.80
2018-12-07T16:55:31.004Z,10.93
2018-12-07T16:57:58.842Z,11.37
2018-12-07T17:00:26.449Z,9.97
2018-12-07T17:02:54.226Z,7.97
2018-12-07T17:05:21.859Z,10.03
2018-12-07T17:07:49.457Z,9.03
2018-12-07T17:10:17.141Z,8.63
2018-12-07T17:12:44.840Z,8.13
2018-12-07T17:15:12.566Z,7.70
2018-12-07T17:17:40.204Z,7.37
2018-12-07T17:20:07.873Z,6.83
2018-12-07T17:22:35.642Z,8.83
2018-12-07T17:25:03.550Z,5.60
2018-12-07T17:27:31.129Z,5.90
2018-12-07T17:29:58.731Z,5.33
2018-12-07T17:32:26.375Z,5.50
2018-12-07T17:34:54.095Z,4.80
2018-12-07T17:37:21.713Z,4.67
2018-12-07T17:39:49.326Z,4.67
2018-12-07T17:42:17.072Z,4.43
2018-12-07T17:44:45.676Z,4.53
2018-12-07T17:47:13.476Z,5.00
2018-12-07T17:49:41.386Z,4.53
2018-12-07T17:52:09.917Z,4.80
2018-12-07T17:54:37.455Z,4.60
2018-12-07T17:57:05.119Z,4.30
2018-12-07T17:59:32.641Z,5.67
2018-12-07T18:02:00.403Z,4.90
2018-12-07T18:04:27.876Z,4.20
2018-12-07T18:06:55.725Z,4.60
2018-12-07T18:09:23.513Z,3.60
2018-12-07T18:11:51.214Z,4.50
2018-12-07T18:14:18.836Z,3.23
2018-12-07T18:16:46.331Z,4.20
2018-12-07T18:19:13.933Z,4.27
2018-12-07T18:21:41.794Z,4.87
2018-12-07T18:24:09.507Z,4.00
2018-12-07T18:26:37.135Z,4.30
2018-12-07T18:29:06.236Z,4.00
2018-12-07T18:31:34.134Z,3.43
2018-12-07T18:34:05.094Z,4.30
2018-12-07T18:36:35.781Z,4.00
2018-12-07T18:39:13.426Z,3.73
2018-12-07T18:41:41.530Z,3.50
2018-12-07T18:44:09.438Z,3.27
2018-12-07T18:46:37.208Z,3.77
2018-12-07T18:49:04.855Z,3.40
2018-12-07T18:51:36.003Z,3.60
2018-12-07T18:54:05.637Z,3.00
2018-12-07T18:56:33.637Z,3.30
2018-12-07T18:59:02.310Z,2.70
2018-12-07T19:01:29.849Z,2.53
2018-12-07T19:03:57.393Z,2.93
2018-12-07T19:06:25.231Z,3.17
2018-12-07T19:08:52.820Z,3.10
2018-12-07T19:11:20.485Z,2.93
2018-12-07T19:13:48.050Z,3.17
2018-12-07T19:16:15.487Z,3.27
2018-12-07T19:18:43.026Z,3.10
2018-12-07T19:21:10.895Z,3.00
2018-12-07T19:23:38.410Z,3.20
2018-12-07T19:26:06.119Z,3.57
2018-12-07T19:28:33.746Z,3.20
2018-12-07T19:31:01.270Z,3.10
2018-12-07T19:33:28.927Z,3.40
2018-12-07T19:35:56.629Z,3.60
2018-12-07T19:38:24.198Z,3.43
2018-12-07T19:40:51.986Z,1.87
2018-12-07T19:43:19.450Z,3.50
2018-12-07T19:45:47.103Z,2.80
2018-12-07T19:48:14.657Z,3.20
2018-12-07T19:50:42.271Z,3.00
2018-12-07T19:53:09.800Z,2.83
2018-12-07T19:55:37.395Z,1.90
2018-12-07T19:58:05.185Z,2.00
2018-12-07T20:00:33.099Z,2.70
2018-12-07T20:03:01.075Z,2.17
2018-12-07T20:05:28.829Z,2.03
2018-12-07T20:07:56.604Z,3.07
2018-12-07T20:10:24.482Z,2.20
2018-12-07T20:12:52.177Z,2.43
2018-12-07T20:15:19.708Z,2.00
2018-12-07T20:17:47.431Z,2.50
2018-12-07T20:20:15.144Z,2.60
2018-12-07T20:22:42.717Z,2.53
2018-12-07T20:25:10.337Z,2.30
2018-12-07T20:27:38.046Z,1.77
2018-12-07T20:30:07.719Z,1.70
2018-12-07T20:32:35.698Z,1.63
2018-12-07T20:35:03.463Z,1.70
2018-12-07T20:37:31.369Z,1.30
2018-12-07T20:39:59.211Z,1.70
2018-12-07T20:42:26.939Z,1.47
2018-12-07T20:44:55.339Z,1.70
2018-12-07T20:47:24.912Z,1.40
2018-12-07T20:49:52.864Z,2.73
2018-12-07T20:52:20.572Z,1.83
2018-12-07T20:54:49.043Z,1.70
2018-12-07T20:57:16.979Z,10.00
2018-12-07T20:59:44.751Z,2.00
2018-12-07T21:02:12.623Z,1.43
2018-12-07T21:04:40.447Z,1.57
2018-12-07T21:07:37.584Z,1.53
2018-12-07T21:13:52.487Z,1.60
2018-12-07T21:19:46.340Z,1.53
2018-12-07T21:22:14.234Z,1.57
2018-12-07T21:24:43.301Z,1.83
2018-12-07T21:27:11.269Z,2.27
2018-12-07T21:29:39.071Z,1.93
2018-12-07T21:32:09.498Z,2.90
2018-12-07T21:37:36.662Z,2.97
2018-12-07T21:40:08.877Z,2.90
2018-12-07T21:42:36.557Z,2.63
2018-12-07T21:45:04.403Z,3.53
2018-12-07T21:47:38.399Z,2.30
2018-12-07T21:50:09.888Z,2.47
2018-12-07T21:52:37.717Z,3.27
2018-12-07T21:55:05.247Z,3.03
2018-12-07T21:57:32.944Z,2.80
2018-12-07T22:00:00.825Z,3.47
2018-12-07T22:02:28.585Z,2.87
2018-12-07T22:04:56.208Z,3.43
2018-12-07T22:07:23.849Z,3.00
2018-12-07T22:09:51.366Z,2.70
2018-12-07T22:12:19.031Z,2.67
2018-12-07T22:14:46.979Z,3.37
2018-12-07T22:17:14.537Z,2.30
2018-12-07T22:19:42.967Z,2.67
2018-12-07T22:22:10.571Z,2.90
2018-12-07T22:24:38.140Z,2.70
2018-12-07T22:27:05.732Z,3.53
2018-12-07T22:29:33.318Z,3.37
2018-12-07T22:32:01.132Z,3.00
2018-12-07T22:34:28.947Z,3.37
2018-12-07T22:36:56.909Z,2.83
2018-12-07T22:39:24.649Z,3.23
2018-12-07T22:41:52.212Z,3.47
2018-12-07T22:44:20.195Z,3.60
2018-12-07T22:46:47.808Z,3.80
2018-12-07T22:49:15.273Z,3.20
2018-12-07T22:51:42.737Z,2.47
2018-12-07T22:54:10.206Z,2.90
2018-12-07T22:56:37.663Z,2.87
2018-12-07T22:59:06.187Z,2.27
2018-12-07T23:01:33.957Z,3.27
2018-12-07T23:04:01.449Z,2.67
2018-12-07T23:06:28.944Z,2.13
2018-12-07T23:08:56.413Z,2.97
2018-12-07T23:11:23.926Z,3.27
2018-12-07T23:13:51.409Z,2.80
2018-12-07T23:16:18.899Z,3.60
2018-12-07T23:18:46.391Z,2.33
2018-12-07T23:21:13.885Z,3.00
2018-12-07T23:23:41.468Z,3.10
2018-12-07T23:26:08.979Z,2.97
2018-12-07T23:28:36.443Z,3.20
2018-12-07T23:31:03.907Z,2.73
2018-12-07T23:33:31.403Z,3.30
2018-12-07T23:35:58.868Z,3.07
2018-12-07T23:38:26.363Z,3.53
2018-12-07T23:40:53.844Z,3.83
2018-12-07T23:43:21.319Z,3.63
2018-12-07T23:45:48.895Z,3.43
2018-12-07T23:48:16.350Z,4.33
2018-12-07T23:50:43.839Z,3.93
2018-12-07T23:53:11.323Z,4.40
2018-12-07T23:55:38.796Z,3.63
2018-12-07T23:58:06.281Z,4.07
